createdAt,value
2023-02-14T00:01:10.421Z,22.38
2023-02-14T00:02:12.649Z,22.92
2023-02-14T00:03:15.012Z,23.98
2023-02-14T00:04:18.538Z,25.00
2023-02-14T00:05:20.877Z,23.45
2023-02-14T00:06:23.139Z,23.23
2023-02-14T00:07:25.349Z,23.10
2023-02-14T00:08:27.590Z,26.92
2023-02-14T00:09:29.987Z,26.75
2023-02-14T00:10:32.212Z,23.23
2023-02-14T00:11:34.617Z,24.10
2023-02-14T00:12:36.823Z,28.55
2023-02-14T00:13:39.306Z,36.58
2023-02-14T00:14:59.755Z,42.88
2023-02-14T00:16:02.069Z,32.40
2023-02-14T00:17:04.433Z,31.85
2023-02-14T00:18:06.889Z,25.58
2023-02-14T00:19:12.134Z,23.58
2023-02-14T00:20:14.520Z,24.38
2023-02-14T00:21:16.764Z,25.77
2023-02-14T00:22:19.018Z,23.98
2023-02-14T00:23:21.218Z,26.05
2023-02-14T00:24:25.697Z,23.98
2023-02-14T00:25:27.900Z,24.30
2023-02-14T00:26:30.137Z,24.83
2023-02-14T00:27:32.429Z,24.25
2023-02-14T00:28:37.122Z,24.33
2023-02-14T00:29:39.348Z,25.55
2023-02-14T00:30:41.568Z,26.30
2023-02-14T00:31:45.193Z,26.08
2023-02-14T00:32:47.442Z,25.80
2023-02-14T00:33:49.680Z,24.25
2023-02-14T00:34:51.887Z,25.55
2023-02-14T00:35:54.248Z,26.30
2023-02-14T00:36:56.544Z,26.75
2023-02-14T00:40:16.168Z,23.83
2023-02-14T00:41:21.305Z,25.58
2023-02-14T00:42:23.809Z,24.65
2023-02-14T00:43:26.172Z,25.25
2023-02-14T00:44:28.631Z,25.38
2023-02-14T00:45:30.857Z,24.25
2023-02-14T00:46:34.343Z,24.02
2023-02-14T00:47:36.770Z,25.35
2023-02-14T00:48:39.089Z,24.75
2023-02-14T00:49:41.422Z,23.90
2023-02-14T00:50:45.754Z,24.73
2023-02-14T00:51:48.040Z,25.40
2023-02-14T00:52:50.311Z,24.70
2023-02-14T00:53:53.009Z,24.63
2023-02-14T00:54:56.084Z,24.17
2023-02-14T00:55:58.359Z,23.90
2023-02-14T00:57:01.038Z,24.30
2023-02-14T00:58:04.426Z,24.83
2023-02-14T00:59:06.671Z,25.20
2023-02-14T01:00:09.437Z,25.08
2023-02-14T01:01:12.427Z,24.20
2023-02-14T01:02:14.682Z,25.25
2023-02-14T01:03:16.864Z,24.02
2023-02-14T01:04:19.078Z,24.23
2023-02-14T01:05:21.555Z,24.90
2023-02-14T01:06:23.739Z,25.40
2023-02-14T01:07:26.065Z,24.27
2023-02-14T01:08:28.380Z,25.75
2023-02-14T01:09:31.458Z,24.48
2023-02-14T01:10:37.642Z,25.70
2023-02-14T01:11:40.449Z,24.85
2023-02-14T01:12:43.768Z,25.88
2023-02-14T01:13:47.246Z,25.17
2023-02-14T01:14:49.708Z,25.58
2023-02-14T01:18:41.995Z,24.38
2023-02-14T01:19:45.274Z,23.88
2023-02-14T01:20:47.541Z,24.35
2023-02-14T01:42:44.648Z,24.08
2023-02-14T01:44:02.009Z,24.92
2023-02-14T01:45:18.545Z,23.35
2023-02-14T01:46:22.903Z,23.23
2023-02-14T01:47:28.789Z,25.73
2023-02-14T01:48:31.063Z,24.88
2023-02-14T01:49:37.851Z,25.65
2023-02-14T01:50:45.100Z,24.42
2023-02-14T01:51:55.804Z,25.35
2023-02-14T01:53:02.902Z,25.00
2023-02-14T01:54:08.195Z,24.48
2023-02-14T01:55:15.496Z,24.70
2023-02-14T01:56:25.254Z,23.17
2023-02-14T01:57:39.819Z,24.27
2023-02-14T01:58:45.540Z,24.90
2023-02-14T01:59:55.667Z,25.52
2023-02-14T02:02:11.801Z,24.45
2023-02-14T02:03:15.919Z,24.42
2023-02-14T02:04:23.878Z,26.17
2023-02-14T02:05:26.887Z,25.40
2023-02-14T02:06:36.317Z,24.77
2023-02-14T02:07:41.777Z,25.85
2023-02-14T02:08:54.643Z,25.20
2023-02-14T02:10:00.609Z,26.05
2023-02-14T02:11:03.144Z,26.35
2023-02-14T02:12:05.380Z,26.35
2023-02-14T02:13:14.077Z,27.45
2023-02-14T02:14:19.148Z,26.52
2023-02-14T02:15:26.437Z,26.27
2023-02-14T02:16:50.874Z,26.85
2023-02-14T02:18:16.969Z,27.48
2023-02-14T02:20:02.969Z,26.95
2023-02-14T02:21:36.621Z,25.02
2023-02-14T02:22:41.384Z,25.65
2023-02-14T02:24:07.148Z,26.70
2023-02-14T02:25:34.643Z,26.70
2023-02-14T02:26:57.940Z,26.02
2023-02-14T02:28:18.616Z,26.80
2023-02-14T02:29:58.186Z,25.90
2023-02-14T02:31:06.117Z,25.95
2023-02-14T02:32:26.566Z,26.52
2023-02-14T02:34:08.135Z,27.67
2023-02-14T02:35:20.662Z,27.75
2023-02-14T02:37:51.159Z,25.73
2023-02-14T02:38:59.332Z,27.95
2023-02-14T02:40:13.390Z,26.10
2023-02-14T02:41:38.101Z,28.05
2023-02-14T02:42:40.244Z,28.40
2023-02-14T02:44:03.438Z,28.05
2023-02-14T02:46:05.981Z,27.13
2023-02-14T02:47:41.746Z,26.88
2023-02-14T02:48:55.446Z,28.70
2023-02-14T02:50:39.509Z,29.67
2023-02-14T02:52:09.553Z,26.35
2023-02-14T02:53:30.032Z,28.67
2023-02-14T02:54:44.101Z,28.30
2023-02-14T02:56:14.220Z,29.90
2023-02-14T02:57:25.982Z,28.65
2023-02-14T02:59:00.572Z,28.35
2023-02-14T03:00:07.369Z,28.75
2023-02-14T03:01:17.335Z,30.60
2023-02-14T03:02:28.313Z,31.10
2023-02-14T03:03:51.660Z,30.52
2023-02-14T03:05:02.182Z,29.83
2023-02-14T03:06:04.717Z,30.48
2023-02-14T03:07:26.530Z,31.92
2023-02-14T03:08:28.848Z,30.73
2023-02-14T03:09:31.088Z,32.80
2023-02-14T03:10:37.973Z,32.13
2023-02-14T03:11:52.919Z,31.05
2023-02-14T03:13:21.701Z,30.80
2023-02-14T03:14:39.215Z,31.38
2023-02-14T03:16:02.448Z,32.60
2023-02-14T03:17:15.494Z,30.95
2023-02-14T03:18:57.709Z,32.35
2023-02-14T03:20:31.033Z,30.70
2023-02-14T03:23:04.605Z,29.83
2023-02-14T03:24:30.984Z,30.90
2023-02-14T03:25:56.004Z,32.17
2023-02-14T03:27:15.204Z,32.80
2023-02-14T03:28:17.372Z,32.70
2023-02-14T03:29:35.418Z,34.10
2023-02-14T03:31:15.898Z,33.22
2023-02-14T03:32:27.746Z,32.92
2023-02-14T03:33:36.799Z,32.88
2023-02-14T03:34:51.743Z,33.55
2023-02-14T03:36:06.921Z,34.38
2023-02-14T03:37:14.608Z,33.90
2023-02-14T03:38:26.840Z,34.78
2023-02-14T03:40:12.031Z,35.08
2023-02-14T03:41:22.315Z,33.40
2023-02-14T03:42:30.614Z,33.10
2023-02-14T03:44:02.739Z,34.72
2023-02-14T03:45:09.377Z,34.50
2023-02-14T03:46:18.119Z,33.67
2023-02-14T03:47:24.456Z,34.55
2023-02-14T03:48:28.914Z,35.05
2023-02-14T03:49:36.048Z,35.55
2023-02-14T03:50:41.616Z,35.28
2023-02-14T03:51:48.198Z,38.55
2023-02-14T03:52:53.392Z,37.42
2023-02-14T03:53:58.382Z,36.45
2023-02-14T03:55:04.892Z,37.95
2023-02-14T03:56:30.061Z,38.53
2023-02-14T03:58:08.701Z,36.88
2023-02-14T03:59:16.936Z,36.75
2023-02-14T04:00:19.642Z,35.78
2023-02-14T04:01:32.943Z,40.30
2023-02-14T04:02:40.915Z,37.63
2023-02-14T04:03:44.339Z,38.30
2023-02-14T04:04:49.565Z,39.65
2023-02-14T04:05:52.249Z,39.63
2023-02-14T04:06:55.117Z,37.38
2023-02-14T04:07:58.529Z,40.00
2023-02-14T04:09:00.763Z,39.17
2023-02-14T04:10:03.104Z,41.10
2023-02-14T04:11:06.296Z,41.13
2023-02-14T04:12:09.319Z,39.13
2023-02-14T04:13:11.507Z,40.17
2023-02-14T04:14:14.032Z,40.47
2023-02-14T04:15:17.039Z,41.60
2023-02-14T04:16:19.305Z,39.72
2023-02-14T04:17:40.036Z,41.38
2023-02-14T04:19:01.073Z,40.22
2023-02-14T04:20:03.470Z,41.45
2023-02-14T04:21:05.999Z,39.55
2023-02-14T04:22:08.471Z,39.17
2023-02-14T04:23:10.672Z,42.47
2023-02-14T04:24:12.929Z,43.00
2023-02-14T04:25:15.279Z,39.83
2023-02-14T04:26:17.481Z,43.05
2023-02-14T04:27:19.711Z,43.95
2023-02-14T04:28:21.953Z,42.85
2023-02-14T04:29:24.186Z,45.17
2023-02-14T04:30:26.531Z,43.10
2023-02-14T04:31:28.936Z,44.05
2023-02-14T04:32:31.223Z,44.47
2023-02-14T04:33:34.143Z,43.70
2023-02-14T04:34:36.469Z,43.00
2023-02-14T04:35:38.737Z,45.55
2023-02-14T04:36:40.966Z,45.58
2023-02-14T04:37:43.188Z,44.58
2023-02-14T04:38:45.401Z,44.00
2023-02-14T04:39:47.764Z,43.65
2023-02-14T04:40:50.562Z,44.78
2023-02-14T04:41:52.746Z,46.88
2023-02-14T04:42:55.043Z,45.75
2023-02-14T04:43:57.250Z,46.65
2023-02-14T04:44:59.468Z,46.50
2023-02-14T04:46:01.706Z,46.85
2023-02-14T04:47:04.973Z,46.63
2023-02-14T04:48:07.225Z,44.22
2023-02-14T04:49:09.479Z,46.53
2023-02-14T04:50:12.510Z,45.58
2023-02-14T04:51:14.813Z,45.80
2023-02-14T04:52:17.035Z,48.55
2023-02-14T04:53:19.463Z,47.90
2023-02-14T04:54:21.800Z,45.08
2023-02-14T04:55:24.277Z,45.78
2023-02-14T04:56:27.053Z,46.33
2023-02-14T04:57:29.273Z,45.03
2023-02-14T04:58:31.496Z,46.88
2023-02-14T04:59:33.757Z,44.40
2023-02-14T05:00:36.293Z,42.88
2023-02-14T05:01:38.593Z,47.88
2023-02-14T05:02:40.790Z,45.67
2023-02-14T05:03:43.012Z,47.45
2023-02-14T05:04:45.314Z,46.40
2023-02-14T05:05:47.586Z,47.15
2023-02-14T05:06:49.844Z,47.13
2023-02-14T05:07:52.074Z,50.13
2023-02-14T05:08:54.929Z,47.00
2023-02-14T05:09:57.186Z,44.47
2023-02-14T05:10:59.823Z,48.13
2023-02-14T05:12:02.212Z,44.22
2023-02-14T05:13:04.454Z,48.20
2023-02-14T05:14:06.742Z,50.85
2023-02-14T05:15:09.428Z,49.80
2023-02-14T05:16:11.694Z,50.53
2023-02-14T05:17:13.915Z,49.83
2023-02-14T05:18:16.090Z,48.08
2023-02-14T05:19:18.315Z,52.85
2023-02-14T05:20:20.644Z,51.38
2023-02-14T05:21:23.045Z,52.90
2023-02-14T05:22:25.288Z,51.55
2023-02-14T05:23:27.586Z,49.22
2023-02-14T05:24:29.787Z,51.70
2023-02-14T05:25:32.111Z,46.95
2023-02-14T05:26:34.423Z,50.80
2023-02-14T05:27:36.658Z,52.72
2023-02-14T05:28:40.850Z,50.33
2023-02-14T05:29:43.078Z,49.55
2023-02-14T05:30:45.815Z,52.92
2023-02-14T05:31:48.360Z,52.10
2023-02-14T05:32:50.677Z,50.58
2023-02-14T05:33:52.948Z,52.25
2023-02-14T05:34:55.185Z,51.67
2023-02-14T05:36:02.592Z,53.28
2023-02-14T05:37:05.041Z,49.35
2023-02-14T05:38:07.320Z,49.80
2023-02-14T05:39:09.593Z,49.40
2023-02-14T05:40:13.837Z,47.45
2023-02-14T05:41:16.046Z,53.08
2023-02-14T05:42:18.486Z,49.35
2023-02-14T05:43:21.480Z,48.92
2023-02-14T05:44:23.925Z,48.97
2023-02-14T05:45:26.276Z,44.20
2023-02-14T05:46:28.619Z,50.13
2023-02-14T05:47:30.882Z,50.58
2023-02-14T05:48:33.994Z,49.88
2023-02-14T05:49:36.512Z,51.17
2023-02-14T05:50:38.812Z,50.28
2023-02-14T05:51:41.024Z,49.67
2023-02-14T05:52:43.655Z,48.92
2023-02-14T05:53:45.888Z,49.72
2023-02-14T05:54:48.144Z,48.85
2023-02-14T05:55:50.436Z,51.55
2023-02-14T05:56:52.673Z,49.25
2023-02-14T05:57:54.884Z,52.15
2023-02-14T05:58:59.963Z,46.75
2023-02-14T06:00:05.408Z,45.53
2023-02-14T06:02:16.919Z,46.63
2023-02-14T06:03:19.149Z,46.08
2023-02-14T06:04:21.419Z,46.85
2023-02-14T06:05:23.768Z,50.35
2023-02-14T06:06:26.052Z,51.60
2023-02-14T06:07:28.317Z,51.03
2023-02-14T06:08:30.584Z,46.03
2023-02-14T06:09:33.127Z,47.22
2023-02-14T06:10:35.302Z,45.08
2023-02-14T06:11:37.533Z,50.72
2023-02-14T06:12:39.720Z,47.38
2023-02-14T06:13:41.904Z,47.58
2023-02-14T06:14:45.053Z,49.65
2023-02-14T06:15:47.391Z,51.15
2023-02-14T06:16:49.851Z,47.33
2023-02-14T06:17:56.518Z,47.17
2023-02-14T06:18:58.742Z,45.88
2023-02-14T06:20:01.008Z,47.88
2023-02-14T06:21:03.567Z,48.10
2023-02-14T06:22:05.894Z,51.42
2023-02-14T06:23:08.141Z,49.40
2023-02-14T06:24:10.370Z,45.47
2023-02-14T06:25:12.781Z,48.38
2023-02-14T06:26:15.137Z,49.13
2023-02-14T06:27:17.425Z,49.67
2023-02-14T06:28:19.715Z,45.78
2023-02-14T06:29:21.958Z,45.13
2023-02-14T06:30:24.868Z,47.35
2023-02-14T06:31:27.461Z,49.58
2023-02-14T06:32:29.713Z,48.80
2023-02-14T06:33:31.921Z,51.08
2023-02-14T06:34:34.503Z,47.67
2023-02-14T06:35:36.706Z,47.38
2023-02-14T06:36:38.892Z,45.78
2023-02-14T06:37:42.166Z,47.70
2023-02-14T06:38:44.705Z,45.05
2023-02-14T06:39:47.083Z,47.83
2023-02-14T06:40:49.318Z,50.13
2023-02-14T06:41:51.664Z,46.90
2023-02-14T06:42:53.980Z,45.05
2023-02-14T06:43:56.287Z,50.25
2023-02-14T06:44:58.529Z,50.65
2023-02-14T06:46:01.403Z,48.33
2023-02-14T06:47:04.450Z,50.80
2023-02-14T06:48:06.736Z,46.70
2023-02-14T06:49:10.148Z,49.97
2023-02-14T06:50:12.385Z,47.38
2023-02-14T06:51:14.724Z,46.17
2023-02-14T06:52:16.923Z,47.03
2023-02-14T06:53:20.039Z,49.33
2023-02-14T06:54:22.270Z,46.60
2023-02-14T06:55:24.514Z,45.10
2023-02-14T06:56:26.767Z,45.85
2023-02-14T06:57:29.048Z,45.80
2023-02-14T06:58:31.555Z,45.55
2023-02-14T06:59:33.767Z,44.60
2023-02-14T07:00:36.022Z,45.75
2023-02-14T07:01:38.322Z,48.47
2023-02-14T07:02:41.072Z,45.70
2023-02-14T07:03:43.535Z,44.25
2023-02-14T07:04:45.722Z,42.10
2023-02-14T07:05:47.927Z,43.03
2023-02-14T07:06:50.158Z,44.10
2023-02-14T07:07:52.351Z,45.05
2023-02-14T07:08:54.673Z,44.90
2023-02-14T07:09:56.898Z,41.72
2023-02-14T07:10:59.476Z,40.00
2023-02-14T07:12:01.919Z,42.88
2023-02-14T07:13:04.769Z,40.00
2023-02-14T07:14:07.016Z,42.00
2023-02-14T07:15:11.383Z,43.38
2023-02-14T07:16:13.864Z,41.22
2023-02-14T07:17:16.104Z,42.97
2023-02-14T07:18:18.292Z,43.03
2023-02-14T07:19:20.466Z,41.83
2023-02-14T07:20:22.988Z,42.63
2023-02-14T07:21:25.378Z,40.13
2023-02-14T07:22:29.502Z,39.28
2023-02-14T07:23:33.002Z,38.92
2023-02-14T07:24:35.417Z,40.08
2023-02-14T07:25:38.241Z,39.10
2023-02-14T07:26:40.431Z,39.35
2023-02-14T07:27:43.081Z,39.25
2023-02-14T07:28:45.971Z,36.78
2023-02-14T07:29:48.179Z,36.72
2023-02-14T07:30:50.501Z,38.92
2023-02-14T07:31:52.902Z,36.53
2023-02-14T07:32:55.154Z,38.33
2023-02-14T07:34:00.721Z,36.63
2023-02-14T07:35:03.053Z,37.67
2023-02-14T07:36:07.080Z,35.88
2023-02-14T07:37:09.275Z,37.08
2023-02-14T07:38:11.480Z,38.28
2023-02-14T07:39:13.992Z,34.83
2023-02-14T07:40:16.230Z,37.50
2023-02-14T07:41:18.456Z,35.45
2023-02-14T07:42:20.622Z,34.90
2023-02-14T07:43:22.885Z,35.38
2023-02-14T07:44:25.144Z,35.95
2023-02-14T07:45:27.422Z,36.58
2023-02-14T07:46:29.721Z,36.38
2023-02-14T07:47:31.973Z,35.58
2023-02-14T07:48:34.710Z,35.90
2023-02-14T07:49:37.154Z,35.05
2023-02-14T07:50:39.421Z,37.97
2023-02-14T07:51:41.651Z,34.75
2023-02-14T07:52:44.356Z,34.92
2023-02-14T07:53:46.540Z,35.35
2023-02-14T07:54:48.714Z,36.17
2023-02-14T07:55:54.480Z,35.20
2023-02-14T07:56:57.332Z,35.40
2023-02-14T07:57:59.642Z,35.15
2023-02-14T07:59:01.885Z,36.33
2023-02-14T08:00:05.787Z,36.45
2023-02-14T08:01:14.454Z,37.15
2023-02-14T08:02:16.701Z,37.08
2023-02-14T08:03:18.903Z,36.03
2023-02-14T08:04:21.399Z,36.83
2023-02-14T08:05:23.690Z,35.97
2023-02-14T08:06:27.861Z,36.35
2023-02-14T08:07:30.119Z,37.17
2023-02-14T08:08:32.530Z,47.03
2023-02-14T08:09:34.795Z,36.17
2023-02-14T08:10:37.185Z,34.78
2023-02-14T08:11:57.685Z,35.30
2023-02-14T08:13:00.225Z,32.83
2023-02-14T08:14:03.809Z,33.50
2023-02-14T08:15:24.845Z,32.47
2023-02-14T08:16:27.134Z,33.10
2023-02-14T08:17:29.360Z,35.42
2023-02-14T08:18:36.996Z,34.08
2023-02-14T08:19:39.773Z,32.92
2023-02-14T08:20:42.108Z,36.75
2023-02-14T08:21:44.281Z,32.80
2023-02-14T08:22:46.518Z,33.63
2023-02-14T08:23:48.824Z,34.20
2023-02-14T08:24:50.957Z,33.35
2023-02-14T08:25:53.170Z,32.90
2023-02-14T08:26:55.410Z,32.65
2023-02-14T08:27:57.614Z,34.35
2023-02-14T08:29:01.686Z,33.13
2023-02-14T08:30:04.065Z,31.08
2023-02-14T08:31:06.789Z,32.17
2023-02-14T08:32:09.129Z,31.30
2023-02-14T08:33:11.379Z,30.30
2023-02-14T08:34:14.695Z,31.63
2023-02-14T08:35:16.937Z,31.50
2023-02-14T08:36:19.278Z,31.38
2023-02-14T08:37:21.569Z,29.85
2023-02-14T08:38:24.155Z,29.63
2023-02-14T08:39:26.322Z,45.88
2023-02-14T08:40:28.608Z,29.42
2023-02-14T08:41:31.123Z,32.75
2023-02-14T08:42:33.322Z,28.77
2023-02-14T08:43:35.576Z,29.77
2023-02-14T08:44:37.765Z,27.40
2023-02-14T08:45:40.087Z,27.70
2023-02-14T08:46:42.493Z,29.73
2023-02-14T08:47:44.882Z,28.92
2023-02-14T08:48:47.155Z,27.83
2023-02-14T08:49:50.117Z,26.65
2023-02-14T08:50:52.342Z,27.33
2023-02-14T08:51:55.112Z,27.52
2023-02-14T08:52:57.500Z,26.33
2023-02-14T08:53:59.721Z,27.10
2023-02-14T08:55:02.739Z,35.97
2023-02-14T08:56:07.318Z,31.63
2023-02-14T08:57:09.480Z,32.83
2023-02-14T08:58:11.777Z,32.10
2023-02-14T08:59:14.027Z,25.48
2023-02-14T09:00:16.621Z,27.70
2023-02-14T09:01:19.090Z,25.40
2023-02-14T09:02:21.358Z,25.13
2023-02-14T09:03:23.793Z,25.40
2023-02-14T09:04:26.085Z,26.45
2023-02-14T09:05:28.437Z,27.48
2023-02-14T09:06:30.862Z,35.58
2023-02-14T09:07:33.168Z,24.40
2023-02-14T09:08:38.940Z,26.20
2023-02-14T09:09:41.250Z,25.52
2023-02-14T09:10:43.492Z,25.38
2023-02-14T09:11:45.714Z,26.20
2023-02-14T09:12:48.137Z,24.80
2023-02-14T09:13:53.159Z,25.67
2023-02-14T09:14:55.367Z,31.90
2023-02-14T09:15:57.610Z,25.52
2023-02-14T09:17:01.394Z,23.70
2023-02-14T09:18:03.759Z,22.20
2023-02-14T09:19:06.010Z,25.08
2023-02-14T09:20:10.441Z,24.45
2023-02-14T09:21:19.965Z,24.13
2023-02-14T09:22:22.384Z,26.08
2023-02-14T09:23:24.577Z,26.95
2023-02-14T09:24:27.628Z,26.33
2023-02-14T09:25:29.845Z,23.65
2023-02-14T09:26:32.580Z,24.33
2023-02-14T09:27:35.254Z,23.70
2023-02-14T09:28:38.246Z,28.63
2023-02-14T09:29:40.438Z,23.25
2023-02-14T09:30:42.653Z,24.77
2023-02-14T09:31:44.976Z,24.10
2023-02-14T09:32:47.304Z,24.35
2023-02-14T09:34:09.397Z,23.98
2023-02-14T09:35:30.624Z,25.13
2023-02-14T09:36:51.574Z,25.92
2023-02-14T09:38:13.219Z,24.77
2023-02-14T09:39:15.405Z,24.13
2023-02-14T09:40:20.080Z,25.00
2023-02-14T09:41:31.108Z,23.95
2023-02-14T09:43:02.123Z,24.52
2023-02-14T09:44:08.728Z,24.80
2023-02-14T09:45:18.903Z,23.17
2023-02-14T09:46:24.017Z,24.85
2023-02-14T09:47:49.449Z,24.85
2023-02-14T09:48:53.237Z,23.80
2023-02-14T09:49:55.848Z,23.67
2023-02-14T09:51:03.477Z,23.60
2023-02-14T09:52:10.733Z,23.48
2023-02-14T09:53:24.998Z,21.98
2023-02-14T09:54:29.414Z,24.55
2023-02-14T09:55:43.235Z,23.35
2023-02-14T09:57:23.589Z,23.98
2023-02-14T09:58:55.912Z,22.27
2023-02-14T10:00:20.535Z,21.65
2023-02-14T10:01:27.880Z,22.23
2023-02-14T10:03:08.345Z,23.33
2023-02-14T10:04:33.678Z,22.75
2023-02-14T10:05:43.847Z,22.30
2023-02-14T10:06:58.962Z,23.65
2023-02-14T10:08:25.947Z,23.23
2023-02-14T10:09:58.788Z,22.95
2023-02-14T10:11:07.645Z,21.40
2023-02-14T10:12:33.472Z,20.90
2023-02-14T10:14:01.725Z,21.15
2023-02-14T10:15:20.811Z,22.80
2023-02-14T10:16:27.402Z,22.35
2023-02-14T10:17:42.243Z,22.95
2023-02-14T10:19:01.604Z,30.65
2023-02-14T10:20:15.949Z,23.70
2023-02-14T10:21:25.617Z,25.48
2023-02-14T10:22:39.630Z,39.33
2023-02-14T10:23:49.317Z,23.25
2023-02-14T10:25:01.742Z,38.38
2023-02-14T10:26:10.516Z,55.70
2023-02-14T10:27:30.861Z,30.17
2023-02-14T10:28:43.305Z,34.10
2023-02-14T10:31:01.535Z,35.28
2023-02-14T10:32:04.662Z,27.08
2023-02-14T10:33:18.076Z,22.40
2023-02-14T10:34:34.305Z,21.70
2023-02-14T10:35:51.479Z,21.65
2023-02-14T10:37:12.097Z,22.45
2023-02-14T10:38:43.722Z,22.60
2023-02-14T10:40:17.650Z,24.98
2023-02-14T10:41:43.869Z,21.30
2023-02-14T10:43:23.177Z,23.98
2023-02-14T10:44:45.988Z,24.90
2023-02-14T10:46:03.574Z,22.65
2023-02-14T10:47:26.423Z,22.05
2023-02-14T10:48:31.241Z,21.13
2023-02-14T10:50:04.308Z,21.35
2023-02-14T10:51:37.140Z,21.20
2023-02-14T10:52:59.295Z,22.58
2023-02-14T10:54:25.777Z,23.77
2023-02-14T10:55:49.386Z,27.02
2023-02-14T10:57:05.401Z,25.23
2023-02-14T10:58:14.016Z,25.23
2023-02-14T10:59:24.632Z,25.15
2023-02-14T11:00:33.268Z,23.55
2023-02-14T11:01:35.609Z,22.33
2023-02-14T11:02:42.816Z,23.05
2023-02-14T11:04:06.454Z,22.75
2023-02-14T11:05:29.965Z,22.55
2023-02-14T11:06:32.881Z,22.38
2023-02-14T11:07:35.100Z,21.38
2023-02-14T11:08:40.264Z,23.98
2023-02-14T11:09:42.709Z,23.10
2023-02-14T11:10:45.718Z,22.00
2023-02-14T11:11:54.776Z,21.73
2023-02-14T11:12:57.560Z,20.83
2023-02-14T11:13:59.750Z,21.35
2023-02-14T11:15:22.189Z,21.45
2023-02-14T11:16:35.731Z,20.23
2023-02-14T11:17:37.969Z,22.95
2023-02-14T11:18:41.254Z,24.40
2023-02-14T11:19:57.008Z,21.33
2023-02-14T11:21:04.096Z,21.80
2023-02-14T11:22:10.012Z,20.38
2023-02-14T11:23:20.366Z,20.88
2023-02-14T11:25:04.459Z,21.58
2023-02-14T11:26:31.460Z,21.65
2023-02-14T11:27:33.982Z,22.40
2023-02-14T11:28:41.009Z,22.27
2023-02-14T11:29:48.086Z,22.08
2023-02-14T11:30:51.671Z,21.60
2023-02-14T11:31:54.715Z,21.38
2023-02-14T11:32:57.496Z,22.05
2023-02-14T11:34:03.679Z,22.30
2023-02-14T11:35:34.279Z,22.08
2023-02-14T11:36:42.010Z,21.85
2023-02-14T11:37:50.908Z,22.63
2023-02-14T11:39:21.848Z,21.77
2023-02-14T11:40:44.468Z,22.30
2023-02-14T11:41:55.471Z,23.23
2023-02-14T11:43:19.074Z,23.25
2023-02-14T11:44:26.876Z,25.15
2023-02-14T11:45:37.861Z,24.90
2023-02-14T11:46:52.368Z,22.08
2023-02-14T11:48:19.871Z,23.77
2023-02-14T11:49:29.513Z,23.15
2023-02-14T11:50:32.184Z,23.55
2023-02-14T11:51:37.745Z,21.65
2023-02-14T11:52:50.900Z,22.30
2023-02-14T11:53:56.140Z,22.13
2023-02-14T11:54:59.168Z,22.73
2023-02-14T11:56:01.561Z,22.38
2023-02-14T11:57:11.946Z,23.70
2023-02-14T11:58:30.926Z,22.80
2023-02-14T11:59:40.899Z,22.45
2023-02-14T12:00:52.894Z,22.98
2023-02-14T12:01:57.947Z,23.45
2023-02-14T12:03:04.616Z,21.98
2023-02-14T12:04:22.773Z,23.05
2023-02-14T12:05:30.832Z,23.95
2023-02-14T12:06:36.227Z,24.15
2023-02-14T12:07:39.578Z,22.58
2023-02-14T12:08:43.112Z,24.30
2023-02-14T12:09:47.098Z,23.35
2023-02-14T12:11:02.666Z,23.13
2023-02-14T12:12:23.286Z,23.15
2023-02-14T12:13:26.205Z,22.50
2023-02-14T12:14:33.723Z,23.90
2023-02-14T12:15:43.230Z,24.08
2023-02-14T12:16:57.821Z,22.95
2023-02-14T12:18:08.959Z,23.63
2023-02-14T12:19:19.747Z,23.98
2023-02-14T12:20:59.652Z,23.90
2023-02-14T12:22:07.178Z,24.52
2023-02-14T12:23:24.104Z,24.70
2023-02-14T12:24:33.812Z,24.02
2023-02-14T12:25:44.232Z,27.05
2023-02-14T12:27:04.708Z,26.98
2023-02-14T12:28:14.891Z,24.67
2023-02-14T12:29:20.010Z,25.27
2023-02-14T12:30:24.224Z,24.25
2023-02-14T12:31:26.607Z,25.05
2023-02-14T12:32:32.017Z,26.27
2023-02-14T12:33:34.225Z,26.20
2023-02-14T12:34:36.469Z,25.75
2023-02-14T12:36:02.560Z,25.60
2023-02-14T12:37:17.784Z,26.40
2023-02-14T12:38:19.931Z,25.33
2023-02-14T12:39:43.844Z,25.83
2023-02-14T12:40:51.692Z,26.08
2023-02-14T12:42:16.891Z,26.02
2023-02-14T12:43:53.385Z,25.25
2023-02-14T12:45:17.359Z,25.35
2023-02-14T12:46:57.357Z,25.85
2023-02-14T12:48:19.845Z,25.50
2023-02-14T12:49:59.384Z,24.17
2023-02-14T12:51:14.705Z,23.30
2023-02-14T12:52:28.742Z,25.75
2023-02-14T12:53:39.813Z,25.60
2023-02-14T12:54:58.953Z,24.85
2023-02-14T12:56:46.883Z,26.83
2023-02-14T12:57:56.761Z,24.85
2023-02-14T12:59:23.138Z,25.58
2023-02-14T13:00:37.626Z,24.95
2023-02-14T13:02:07.907Z,26.42
2023-02-14T13:03:34.844Z,24.83
2023-02-14T13:05:04.506Z,25.52
2023-02-14T13:06:20.099Z,25.73
2023-02-14T13:08:00.626Z,24.10
2023-02-14T13:09:03.434Z,24.52
2023-02-14T13:10:19.191Z,26.40
2023-02-14T13:11:41.283Z,25.02
2023-02-14T13:13:07.427Z,25.60
2023-02-14T13:14:46.501Z,26.15
2023-02-14T13:15:59.461Z,24.67
2023-02-14T13:17:34.816Z,25.55
2023-02-14T13:18:40.202Z,24.65
2023-02-14T13:19:49.905Z,26.02
2023-02-14T13:21:01.429Z,25.52
2023-02-14T13:22:06.177Z,24.38
2023-02-14T13:23:24.924Z,24.65
2023-02-14T13:24:39.194Z,23.52
2023-02-14T13:25:49.834Z,24.90
2023-02-14T13:26:56.426Z,23.95
2023-02-14T13:28:06.497Z,24.55
2023-02-14T13:29:17.874Z,25.85
2023-02-14T13:30:27.630Z,26.37
2023-02-14T13:31:31.363Z,24.50
2023-02-14T13:32:40.491Z,26.15
2023-02-14T13:33:50.215Z,26.20
2023-02-14T13:34:53.293Z,25.73
2023-02-14T13:36:00.037Z,25.13
2023-02-14T13:37:06.722Z,24.85
2023-02-14T13:38:15.674Z,25.75
2023-02-14T13:39:31.255Z,26.20
2023-02-14T13:40:36.552Z,24.98
2023-02-14T13:41:41.948Z,26.90
2023-02-14T13:42:46.812Z,25.35
2023-02-14T13:43:56.437Z,25.38
2023-02-14T13:44:58.699Z,25.52
2023-02-14T13:46:00.970Z,24.90
2023-02-14T13:47:03.401Z,25.55
2023-02-14T13:48:06.731Z,25.48
2023-02-14T13:49:27.029Z,25.92
2023-02-14T13:50:29.340Z,26.27
2023-02-14T13:51:49.107Z,25.52
2023-02-14T13:52:51.533Z,24.33
2023-02-14T13:53:53.716Z,24.60
2023-02-14T13:55:02.865Z,25.95
2023-02-14T13:56:17.036Z,26.63
2023-02-14T13:57:31.515Z,25.67
2023-02-14T13:58:35.444Z,26.17
2023-02-14T13:59:37.682Z,25.63
2023-02-14T14:00:42.382Z,25.40
2023-02-14T14:01:50.115Z,25.70
2023-02-14T14:02:56.851Z,25.33
2023-02-14T14:04:02.552Z,25.52
2023-02-14T14:05:30.625Z,24.55
2023-02-14T14:07:13.582Z,25.42
2023-02-14T14:08:42.791Z,25.10
2023-02-14T14:09:45.460Z,25.17
2023-02-14T14:10:49.105Z,26.58
2023-02-14T14:11:51.755Z,26.10
2023-02-14T14:12:53.986Z,38.47
2023-02-14T14:14:01.591Z,27.33
2023-02-14T14:15:06.975Z,27.35
2023-02-14T14:16:27.854Z,26.38
2023-02-14T14:17:32.439Z,27.95
2023-02-14T14:18:41.627Z,27.35
2023-02-14T14:19:45.069Z,27.13
2023-02-14T14:20:49.108Z,36.92
2023-02-14T14:22:01.481Z,27.17
2023-02-14T14:24:26.211Z,26.38
2023-02-14T14:25:34.539Z,24.60
2023-02-14T14:26:41.843Z,25.25
2023-02-14T14:27:46.989Z,25.73
2023-02-14T14:28:49.641Z,26.23
2023-02-14T14:29:58.465Z,24.38
2023-02-14T14:31:01.056Z,48.67
2023-02-14T14:32:18.147Z,27.42
2023-02-14T14:33:32.814Z,25.88
2023-02-14T14:34:35.013Z,27.08
2023-02-14T14:35:37.273Z,33.03
2023-02-14T14:36:39.502Z,27.33
2023-02-14T14:37:52.628Z,26.27
2023-02-14T14:38:54.982Z,24.08
2023-02-14T14:39:59.363Z,24.92
2023-02-14T14:41:02.503Z,25.58
2023-02-14T14:42:07.405Z,24.40
2023-02-14T14:43:17.796Z,24.73
2023-02-14T14:44:20.310Z,24.88
2023-02-14T14:45:28.099Z,28.20
2023-02-14T14:46:31.244Z,24.40
2023-02-14T14:47:42.820Z,64.65
2023-02-14T14:48:51.372Z,31.35
2023-02-14T14:49:57.604Z,29.63
2023-02-14T14:51:00.581Z,27.75
2023-02-14T14:52:03.145Z,25.33
2023-02-14T14:53:09.382Z,25.08
2023-02-14T14:54:19.783Z,26.13
2023-02-14T14:55:26.405Z,24.48
2023-02-14T14:56:49.808Z,25.48
2023-02-14T14:57:54.916Z,25.40
2023-02-14T14:58:57.800Z,26.05
2023-02-14T15:00:17.365Z,26.55
2023-02-14T15:01:33.327Z,25.30
2023-02-14T15:02:35.600Z,25.95
2023-02-14T15:03:37.853Z,24.73
2023-02-14T15:04:40.161Z,27.58
2023-02-14T15:05:45.519Z,25.17
2023-02-14T15:06:48.659Z,25.30
2023-02-14T15:07:50.875Z,25.55
2023-02-14T15:08:54.447Z,25.45
2023-02-14T15:09:56.745Z,27.20
2023-02-14T15:11:02.334Z,25.60
2023-02-14T15:12:23.585Z,26.67